createdAt,value
2022-10-05T00:02:05.389Z,4.30
2022-10-05T00:04:38.506Z,4.10
2022-10-05T00:07:20.482Z,4.22
2022-10-05T00:09:59.883Z,3.60
2022-10-05T00:12:30.643Z,4.25
2022-10-05T00:15:02.129Z,4.25
2022-10-05T00:17:32.958Z,4.32
2022-10-05T00:20:26.227Z,4.40
2022-10-05T00:23:02.498Z,4.55
2022-10-05T00:25:33.627Z,4.05
2022-10-05T00:28:22.721Z,4.72
2022-10-05T00:30:58.583Z,4.68
2022-10-05T00:33:29.461Z,4.62
2022-10-05T00:36:01.639Z,4.60
2022-10-05T00:38:31.147Z,4.45
2022-10-05T00:41:07.912Z,5.75
2022-10-05T00:43:53.237Z,3.80
2022-10-05T00:46:49.420Z,3.87
2022-10-05T00:49:26.389Z,3.75
2022-10-05T00:52:41.528Z,4.32
2022-10-05T00:55:19.930Z,3.67
2022-10-05T00:58:05.521Z,3.37
2022-10-05T01:00:55.853Z,2.97
2022-10-05T01:03:41.509Z,3.33
2022-10-05T01:06:58.186Z,2.95
2022-10-05T01:09:59.437Z,3.20
2022-10-05T01:12:48.517Z,3.15
2022-10-05T01:15:47.983Z,2.92
2022-10-05T01:18:28.785Z,2.87
2022-10-05T01:21:11.265Z,4.62
2022-10-05T01:24:03.256Z,4.53
2022-10-05T01:26:50.868Z,4.70
2022-10-05T01:29:38.498Z,3.55
2022-10-05T01:32:24.369Z,2.90
2022-10-05T01:35:01.367Z,3.42
2022-10-05T01:38:04.085Z,3.70
2022-10-05T01:40:59.938Z,3.40
2022-10-05T01:43:45.773Z,4.15
2022-10-05T01:46:37.278Z,3.75
2022-10-05T01:49:33.211Z,3.72
2022-10-05T01:52:31.050Z,5.00
2022-10-05T01:55:43.834Z,4.50
2022-10-05T01:58:31.749Z,4.55
2022-10-05T02:01:23.809Z,3.35
2022-10-05T02:04:21.103Z,3.58
2022-10-05T02:07:05.260Z,3.33
2022-10-05T02:09:47.879Z,3.08
2022-10-05T02:12:21.026Z,2.95
2022-10-05T02:14:59.960Z,3.00
2022-10-05T02:17:41.264Z,2.60
2022-10-05T02:20:18.387Z,2.90
2022-10-05T02:23:09.114Z,3.00
2022-10-05T02:25:43.390Z,2.75
2022-10-05T02:28:28.823Z,3.12
2022-10-05T02:31:09.294Z,3.25
2022-10-05T02:33:41.246Z,3.22
2022-10-05T02:36:16.494Z,3.65
2022-10-05T02:39:08.690Z,3.28
2022-10-05T02:41:49.233Z,3.15
2022-10-05T02:44:29.213Z,3.42
2022-10-05T02:47:08.009Z,3.35
2022-10-05T02:49:59.139Z,3.90
2022-10-05T02:52:35.657Z,4.20
2022-10-05T02:55:15.378Z,3.28
2022-10-05T02:57:52.627Z,4.10
2022-10-05T03:00:23.842Z,3.10
2022-10-05T03:03:05.217Z,3.42
2022-10-05T03:05:37.180Z,3.00
2022-10-05T03:11:21.968Z,2.95
2022-10-05T03:14:10.979Z,2.90
2022-10-05T03:16:48.352Z,2.70
2022-10-05T03:19:55.665Z,2.97
2022-10-05T03:22:55.465Z,2.85
2022-10-05T03:25:53.935Z,2.75
2022-10-05T03:28:33.224Z,2.80
2022-10-05T03:31:05.497Z,3.05
2022-10-05T03:33:51.241Z,2.50
2022-10-05T03:36:23.645Z,2.10
2022-10-05T03:39:20.611Z,3.00
2022-10-05T03:42:09.658Z,2.50
2022-10-05T03:44:52.325Z,2.80
2022-10-05T03:48:07.356Z,2.78
2022-10-05T03:50:55.755Z,2.45
2022-10-05T03:53:28.511Z,2.67
2022-10-05T03:56:18.314Z,3.37
2022-10-05T03:58:57.551Z,2.53
2022-10-05T04:01:39.258Z,2.70
2022-10-05T04:04:14.206Z,3.47
2022-10-05T04:06:47.519Z,3.70
2022-10-05T04:09:24.201Z,3.87
2022-10-05T04:12:10.108Z,3.72
2022-10-05T04:14:47.530Z,3.75
2022-10-05T04:17:22.995Z,4.37
2022-10-05T04:19:58.257Z,3.25
2022-10-05T04:23:17.693Z,3.25
2022-10-05T04:26:02.836Z,2.70
2022-10-05T04:28:41.786Z,2.90
2022-10-05T04:31:17.680Z,2.78
2022-10-05T04:33:51.623Z,2.75
2022-10-05T04:36:33.854Z,4.00
2022-10-05T04:39:18.259Z,3.42
2022-10-05T04:42:30.381Z,2.42
2022-10-05T04:45:28.766Z,2.45
2022-10-05T04:48:28.100Z,2.28
2022-10-05T04:51:20.198Z,2.80
2022-10-05T04:53:57.360Z,3.10
2022-10-05T04:56:39.754Z,2.78
2022-10-05T04:59:22.948Z,2.90
2022-10-05T05:01:58.426Z,2.80
2022-10-05T05:04:26.267Z,3.42
2022-10-05T05:07:15.765Z,3.27
2022-10-05T05:10:22.603Z,2.87
2022-10-05T05:12:57.241Z,2.92
2022-10-05T05:15:26.400Z,2.95
2022-10-05T05:18:26.169Z,3.10
2022-10-05T05:21:24.710Z,3.15
2022-10-05T05:24:24.099Z,3.20
2022-10-05T05:27:02.850Z,4.50
2022-10-05T05:29:53.115Z,5.35
2022-10-05T05:35:12.203Z,3.83
2022-10-05T05:38:23.534Z,3.87
2022-10-05T05:41:15.735Z,7.22
2022-10-05T05:43:48.299Z,4.03
2022-10-05T05:46:51.068Z,4.28
2022-10-05T05:49:27.714Z,4.62
2022-10-05T05:52:01.799Z,3.87
2022-10-05T05:54:43.731Z,3.92
2022-10-05T05:59:47.829Z,3.53
2022-10-05T06:02:20.687Z,3.83
2022-10-05T06:05:01.325Z,4.75
2022-10-05T06:07:31.267Z,4.87
2022-10-05T06:10:19.849Z,5.12
2022-10-05T06:12:50.037Z,4.40
2022-10-05T06:15:24.555Z,4.10
2022-10-05T06:17:55.974Z,4.20
2022-10-05T06:20:34.689Z,4.37
2022-10-05T06:23:14.401Z,3.40
2022-10-05T06:25:57.220Z,4.50
2022-10-05T06:28:28.293Z,4.07
2022-10-05T06:31:11.385Z,3.83
2022-10-05T06:33:47.145Z,4.20
2022-10-05T06:36:48.697Z,4.43
2022-10-05T06:40:00.755Z,3.70
2022-10-05T06:42:48.961Z,4.55
2022-10-05T06:45:38.639Z,4.00
2022-10-05T06:48:48.996Z,4.60
2022-10-05T06:51:32.454Z,4.65
2022-10-05T06:54:13.333Z,5.10
2022-10-05T06:56:48.748Z,4.95
2022-10-05T06:59:39.645Z,5.75
2022-10-05T07:02:16.981Z,4.80
2022-10-05T07:04:48.136Z,6.05
2022-10-05T07:07:42.839Z,6.53
2022-10-05T07:10:28.325Z,5.65
2022-10-05T07:13:15.510Z,6.35
2022-10-05T07:15:47.160Z,6.62
2022-10-05T07:18:47.023Z,6.85
2022-10-05T07:21:18.990Z,6.57
2022-10-05T07:24:12.445Z,6.28
2022-10-05T07:26:46.019Z,7.28
2022-10-05T07:29:37.321Z,6.97
2022-10-05T07:32:56.265Z,6.95
2022-10-05T07:36:07.570Z,6.10
2022-10-05T07:38:47.887Z,6.35
2022-10-05T07:41:37.870Z,7.28
2022-10-05T07:44:22.912Z,6.30
2022-10-05T07:47:10.870Z,7.47
2022-10-05T07:49:49.689Z,6.10
2022-10-05T07:52:24.620Z,7.10
2022-10-05T07:55:04.581Z,6.40
2022-10-05T07:57:45.221Z,6.70
2022-10-05T08:00:20.331Z,6.47
2022-10-05T08:02:52.607Z,6.53
2022-10-05T08:05:27.595Z,6.68
2022-10-05T08:08:43.385Z,6.53
2022-10-05T08:11:18.060Z,5.90
2022-10-05T08:13:55.827Z,6.43
2022-10-05T08:16:27.319Z,6.12
2022-10-05T08:19:18.887Z,7.07
2022-10-05T08:21:52.298Z,7.68
2022-10-05T08:24:23.194Z,7.07
2022-10-05T08:26:59.883Z,7.12
2022-10-05T08:29:27.609Z,9.10
2022-10-05T08:32:02.797Z,6.45
2022-10-05T08:34:39.552Z,6.95
2022-10-05T08:37:37.759Z,6.28
2022-10-05T08:40:43.132Z,5.97
2022-10-05T08:43:34.349Z,5.70
2022-10-05T08:46:21.859Z,6.45
2022-10-05T08:49:10.205Z,6.40
2022-10-05T08:51:41.593Z,6.45
2022-10-05T08:54:35.825Z,6.53
2022-10-05T08:57:28.536Z,6.57
2022-10-05T09:00:13.027Z,7.53
2022-10-05T09:02:59.524Z,6.47
2022-10-05T09:05:58.642Z,6.47
2022-10-05T09:08:57.810Z,6.82
2022-10-05T09:11:31.994Z,6.95
2022-10-05T09:14:25.043Z,7.70
2022-10-05T09:16:57.706Z,7.93
2022-10-05T09:19:52.165Z,7.90
2022-10-05T09:22:36.132Z,7.20
2022-10-05T09:25:17.272Z,6.60
2022-10-05T09:28:02.404Z,6.28
2022-10-05T09:30:54.658Z,6.50
2022-10-05T09:33:52.017Z,6.12
2022-10-05T09:36:35.213Z,6.22
2022-10-05T09:39:24.899Z,6.00
2022-10-05T09:42:12.791Z,5.53
2022-10-05T09:45:21.010Z,6.07
2022-10-05T09:48:08.175Z,6.05
2022-10-05T09:50:49.608Z,5.72
2022-10-05T09:53:41.037Z,5.32
2022-10-05T09:56:46.604Z,5.97
2022-10-05T09:59:29.973Z,6.05
2022-10-05T10:02:27.703Z,6.55
2022-10-05T10:05:08.014Z,6.12
2022-10-05T10:07:58.245Z,5.70
2022-10-05T10:11:04.920Z,4.73
2022-10-05T10:13:35.488Z,4.32
2022-10-05T10:16:25.765Z,4.30
2022-10-05T10:19:15.355Z,4.37
2022-10-05T10:22:06.808Z,3.92
2022-10-05T10:24:52.552Z,3.67
2022-10-05T10:27:57.904Z,3.72
2022-10-05T10:30:43.809Z,3.62
2022-10-05T10:33:33.030Z,4.43
2022-10-05T10:36:16.463Z,3.80
2022-10-05T10:38:59.944Z,4.00
2022-10-05T10:41:45.607Z,4.28
2022-10-05T10:44:37.154Z,4.30
2022-10-05T10:47:35.743Z,4.12
2022-10-05T10:50:25.946Z,4.10
2022-10-05T10:53:25.003Z,4.45
2022-10-05T10:56:08.800Z,4.20
2022-10-05T10:59:00.809Z,4.03
2022-10-05T11:01:32.125Z,5.07
2022-10-05T11:04:18.886Z,4.10
2022-10-05T11:07:16.420Z,4.22
2022-10-05T11:10:23.353Z,3.75
2022-10-05T11:12:54.345Z,4.50
2022-10-05T11:15:35.141Z,3.67
2022-10-05T11:18:20.266Z,4.53
2022-10-05T11:20:47.888Z,5.90
2022-10-05T11:23:54.779Z,5.22
2022-10-05T11:26:32.541Z,4.68
2022-10-05T11:29:22.302Z,6.35
2022-10-05T11:32:15.183Z,5.00
2022-10-05T11:35:24.642Z,4.90
2022-10-05T11:37:56.318Z,4.57
2022-10-05T11:40:38.684Z,4.32
2022-10-05T11:43:14.203Z,4.35
2022-10-05T11:45:57.833Z,3.12
2022-10-05T11:49:10.453Z,3.80
2022-10-05T11:51:53.395Z,4.07
2022-10-05T11:54:35.148Z,5.15
2022-10-05T11:57:52.946Z,3.97
2022-10-05T12:00:23.910Z,3.37
2022-10-05T12:02:54.962Z,3.10
2022-10-05T12:05:41.460Z,3.95
2022-10-05T12:08:12.874Z,4.15
2022-10-05T12:10:48.524Z,3.90
2022-10-05T12:13:45.121Z,3.17
2022-10-05T12:16:27.578Z,2.65
2022-10-05T12:19:07.303Z,2.22
2022-10-05T12:22:15.556Z,1.98
2022-10-05T12:24:55.714Z,1.73
2022-10-05T12:27:25.555Z,2.45
2022-10-05T12:30:26.514Z,2.00
2022-10-05T12:33:04.248Z,2.08
2022-10-05T12:35:48.372Z,2.67
2022-10-05T12:38:30.899Z,2.35
2022-10-05T12:41:18.931Z,1.98
2022-10-05T12:44:14.923Z,2.10
2022-10-05T12:46:49.279Z,1.95
2022-10-05T12:49:36.249Z,1.80
2022-10-05T12:52:06.968Z,2.00
2022-10-05T12:54:55.372Z,1.70
2022-10-05T12:57:35.603Z,1.48
2022-10-05T13:00:06.235Z,2.55
2022-10-05T13:05:11.118Z,1.90
2022-10-05T13:07:51.772Z,1.80
2022-10-05T13:10:28.231Z,2.03
2022-10-05T13:13:24.295Z,1.70
2022-10-05T13:16:26.653Z,1.80
2022-10-05T13:19:34.052Z,1.70
2022-10-05T13:22:32.812Z,2.58
2022-10-05T13:25:04.417Z,1.67
2022-10-05T13:27:35.731Z,1.80
2022-10-05T13:30:16.700Z,1.60
2022-10-05T13:32:50.945Z,1.40
2022-10-05T13:35:31.644Z,1.70
2022-10-05T13:38:16.470Z,3.33
2022-10-05T13:41:16.835Z,2.30
2022-10-05T13:43:48.758Z,1.90
2022-10-05T13:46:33.425Z,1.83
2022-10-05T13:49:31.366Z,2.28
2022-10-05T13:52:09.233Z,1.80
2022-10-05T13:54:41.967Z,1.67
2022-10-05T13:57:51.735Z,1.80
2022-10-05T14:00:24.246Z,2.05
2022-10-05T14:02:57.124Z,1.98
2022-10-05T14:05:29.586Z,2.80
2022-10-05T14:08:16.190Z,2.50
2022-10-05T14:10:47.133Z,1.70
2022-10-05T14:16:13.257Z,1.77
2022-10-05T14:19:05.481Z,2.17
2022-10-05T14:21:44.075Z,2.20
2022-10-05T14:24:44.867Z,2.05
2022-10-05T14:27:25.263Z,2.03
2022-10-05T14:30:13.477Z,1.80
2022-10-05T14:32:59.544Z,2.25
2022-10-05T14:35:44.106Z,2.03
2022-10-05T14:38:17.805Z,2.60
2022-10-05T14:40:46.069Z,2.70
2022-10-05T14:43:16.628Z,2.45
2022-10-05T14:45:58.818Z,2.78
2022-10-05T14:48:30.006Z,3.53
2022-10-05T14:51:03.732Z,2.10
2022-10-05T14:53:43.642Z,2.25
2022-10-05T14:56:22.021Z,2.03
2022-10-05T14:59:05.326Z,2.40
2022-10-05T15:01:36.855Z,2.17
2022-10-05T15:04:17.791Z,2.20
2022-10-05T15:07:11.160Z,2.53
2022-10-05T15:10:01.701Z,2.90
2022-10-05T15:12:35.227Z,2.72
2022-10-05T15:15:09.703Z,2.72
2022-10-05T15:17:52.596Z,2.65
2022-10-05T15:20:30.151Z,2.33
2022-10-05T15:23:40.809Z,2.58
2022-10-05T15:26:15.251Z,2.67
2022-10-05T15:28:54.496Z,2.62
2022-10-05T15:31:38.014Z,2.97
2022-10-05T15:34:24.788Z,2.80
2022-10-05T15:37:20.197Z,2.72
2022-10-05T15:39:55.461Z,3.45
2022-10-05T15:42:35.224Z,2.78
2022-10-05T15:45:19.650Z,3.15
2022-10-05T15:47:53.553Z,2.78
2022-10-05T15:50:22.110Z,3.08
2022-10-05T15:53:02.550Z,3.42
2022-10-05T15:55:49.648Z,4.22
2022-10-05T15:58:31.431Z,3.37
2022-10-05T16:01:33.947Z,3.33
2022-10-05T16:04:14.204Z,3.10
2022-10-05T16:07:09.584Z,4.75
2022-10-05T16:09:37.846Z,3.72
2022-10-05T16:12:10.195Z,3.85
2022-10-05T16:15:12.138Z,3.15
2022-10-05T16:17:58.813Z,3.50
2022-10-05T16:20:41.063Z,3.58
2022-10-05T16:25:54.618Z,4.03
2022-10-05T16:28:33.395Z,4.50
2022-10-05T16:31:25.841Z,5.22
2022-10-05T16:34:00.513Z,4.50
2022-10-05T16:36:44.543Z,4.68
2022-10-05T16:39:15.521Z,4.43
2022-10-05T16:42:01.750Z,4.60
2022-10-05T16:45:13.768Z,5.22
2022-10-05T16:47:57.361Z,5.00
2022-10-05T16:50:44.189Z,5.15
2022-10-05T16:53:42.463Z,4.50
2022-10-05T16:56:13.820Z,3.90
2022-10-05T16:58:57.577Z,4.43
2022-10-05T17:01:44.028Z,6.12
2022-10-05T17:04:24.200Z,4.40
2022-10-05T17:07:25.824Z,5.30
2022-10-05T17:10:09.394Z,5.95
2022-10-05T17:12:40.807Z,7.12
2022-10-05T17:15:23.998Z,7.03
2022-10-05T17:18:06.638Z,7.03
2022-10-05T17:20:45.320Z,7.45
2022-10-05T17:23:54.034Z,7.12
2022-10-05T17:26:56.714Z,7.22
2022-10-05T17:29:28.065Z,7.72
2022-10-05T17:32:10.241Z,7.70
2022-10-05T17:34:40.274Z,7.07
2022-10-05T17:37:38.100Z,7.60
2022-10-05T17:40:35.328Z,7.80
2022-10-05T17:43:24.182Z,6.82
2022-10-05T17:45:55.837Z,7.22
2022-10-05T17:48:43.176Z,6.30
2022-10-05T17:51:56.068Z,5.82
2022-10-05T17:55:03.235Z,5.60
2022-10-05T17:57:31.946Z,6.25
2022-10-05T18:00:02.108Z,6.22
2022-10-05T18:02:36.347Z,6.22
2022-10-05T18:05:16.305Z,5.95
2022-10-05T18:08:08.783Z,8.90
2022-10-05T18:10:41.267Z,7.82
2022-10-05T18:13:27.726Z,6.62
2022-10-05T18:15:56.059Z,7.50
2022-10-05T18:18:35.526Z,7.00
2022-10-05T18:21:14.839Z,6.87
2022-10-05T18:23:50.361Z,7.22
2022-10-05T18:26:23.847Z,6.80
2022-10-05T18:29:48.377Z,7.60
2022-10-05T18:32:35.227Z,7.80
2022-10-05T18:35:15.412Z,6.10
2022-10-05T18:37:49.587Z,8.35
2022-10-05T18:40:34.792Z,7.15
2022-10-05T18:43:31.537Z,7.28
2022-10-05T18:46:18.541Z,6.28
2022-10-05T18:49:17.462Z,5.50
2022-10-05T18:52:00.425Z,6.75
2022-10-05T18:54:51.243Z,5.68
2022-10-05T18:57:40.165Z,6.05
2022-10-05T19:00:21.182Z,6.07
2022-10-05T19:03:00.791Z,6.07
2022-10-05T19:05:48.697Z,6.37
2022-10-05T19:08:33.509Z,5.70
2022-10-05T19:11:39.757Z,6.43
2022-10-05T19:14:31.463Z,5.97
2022-10-05T19:17:25.593Z,5.20
2022-10-05T19:19:57.575Z,5.72
2022-10-05T19:22:47.398Z,6.70
2022-10-05T19:25:37.052Z,5.12
2022-10-05T19:28:08.245Z,5.45
2022-10-05T19:31:14.987Z,6.03
2022-10-05T19:34:09.509Z,5.30
2022-10-05T19:37:15.723Z,5.90
2022-10-05T19:40:17.747Z,5.37
2022-10-05T19:43:07.871Z,5.50
2022-10-05T19:45:39.809Z,5.25
2022-10-05T19:48:26.658Z,5.43
2022-10-05T19:51:00.841Z,5.45
2022-10-05T19:53:37.288Z,5.12
2022-10-05T19:56:29.341Z,5.72
2022-10-05T19:58:59.466Z,5.12
2022-10-05T20:01:31.505Z,4.50
2022-10-05T20:03:59.545Z,4.50
2022-10-05T20:06:30.087Z,5.12
2022-10-05T20:09:00.403Z,4.60
2022-10-05T20:11:29.347Z,4.53
2022-10-05T20:13:57.469Z,5.03
2022-10-05T20:19:36.456Z,5.40
2022-10-05T20:22:25.477Z,5.50
2022-10-05T20:24:57.364Z,6.65
2022-10-05T20:27:40.876Z,6.18
2022-10-05T20:30:17.061Z,6.50
2022-10-05T20:32:52.972Z,7.72
2022-10-05T20:35:26.301Z,8.23
2022-10-05T20:37:54.413Z,8.48
2022-10-05T20:40:23.154Z,8.55
2022-10-05T20:42:51.746Z,8.27
2022-10-05T20:45:19.985Z,9.35
2022-10-05T20:47:50.765Z,8.10
2022-10-05T20:50:18.915Z,8.95
2022-10-05T20:52:47.322Z,7.90
2022-10-05T20:55:15.790Z,6.35
2022-10-05T20:57:43.437Z,7.47
2022-10-05T21:00:12.428Z,7.55
2022-10-05T21:02:41.015Z,8.63
2022-10-05T21:05:09.693Z,9.00
2022-10-05T21:07:38.022Z,9.25
2022-10-05T21:10:07.159Z,8.90
2022-10-05T21:12:35.391Z,8.93
2022-10-05T21:15:06.727Z,9.23
2022-10-05T21:17:37.328Z,9.50
2022-10-05T21:20:05.781Z,9.37
2022-10-05T21:22:36.377Z,9.45
2022-10-05T21:25:05.495Z,8.82
2022-10-05T21:27:34.765Z,8.05
2022-10-05T21:30:03.368Z,8.63
2022-10-05T21:32:31.318Z,8.60
2022-10-05T21:34:58.993Z,9.15
2022-10-05T21:37:29.158Z,8.85
2022-10-05T21:39:57.450Z,8.88
2022-10-05T21:42:26.454Z,7.43
2022-10-05T21:44:54.941Z,7.57
2022-10-05T21:47:23.108Z,6.72
2022-10-05T21:49:50.677Z,8.02
2022-10-05T21:52:19.011Z,7.60
2022-10-05T21:54:46.944Z,6.95
2022-10-05T21:57:15.484Z,7.90
2022-10-05T21:59:45.067Z,8.38
2022-10-05T22:02:13.416Z,7.80
2022-10-05T22:04:41.928Z,8.10
2022-10-05T22:07:18.528Z,8.35
2022-10-05T22:09:51.673Z,9.27
2022-10-05T22:12:21.564Z,8.50
2022-10-05T22:14:53.292Z,8.57
2022-10-05T22:17:25.909Z,8.38
2022-10-05T22:19:57.084Z,7.95
2022-10-05T22:22:30.925Z,8.10
2022-10-05T22:25:00.544Z,8.45
2022-10-05T22:27:30.153Z,9.27
2022-10-05T22:29:59.428Z,9.05
2022-10-05T22:32:29.493Z,8.35
2022-10-05T22:34:59.600Z,8.73
2022-10-05T22:37:29.117Z,9.60
2022-10-05T22:39:59.194Z,9.25
2022-10-05T22:42:29.343Z,8.77
2022-10-05T22:44:59.355Z,8.60
2022-10-05T22:47:30.871Z,9.68
2022-10-05T22:52:32.499Z,8.48
2022-10-05T22:55:01.795Z,8.65
2022-10-05T22:57:38.505Z,9.63
2022-10-05T23:00:09.931Z,9.23
2022-10-05T23:02:43.493Z,9.60
2022-10-05T23:05:14.144Z,8.50
2022-10-05T23:07:49.620Z,8.38
2022-10-05T23:10:21.214Z,7.28
2022-10-05T23:13:00.718Z,8.43
2022-10-05T23:15:34.747Z,8.30
2022-10-05T23:18:04.675Z,8.05
2022-10-05T23:20:34.466Z,7.68
2022-10-05T23:23:03.156Z,7.10
2022-10-05T23:25:31.854Z,8.40
2022-10-05T23:28:02.874Z,7.62
2022-10-05T23:30:32.347Z,7.22
2022-10-05T23:33:03.568Z,7.45
2022-10-05T23:38:01.380Z,6.80
2022-10-05T23:40:32.594Z,7.32
2022-10-05T23:43:01.615Z,7.37
2022-10-05T23:45:31.776Z,6.37
2022-10-05T23:48:01.731Z,6.70
2022-10-05T23:50:31.756Z,7.18
2022-10-05T23:53:00.598Z,6.53
2022-10-05T23:55:29.246Z,7.72
2022-10-05T23:57:59.305Z,7.53
